KELP/ELP METAR and TAF weather

Enter ICAO airport designator
Station Type Date Time Source
KELP METAR 2021/05/14 05:51 UTC NOAA

KELP 140551Z 17006KT 10SM CLR 21/07 A3010 RMK AO2 SLP128 T02060072 10311 20206 58005


Station Type Date Time Source
KELP Decoded METAR 2021/05/14 05:51 UTC NOAA

EL PASO INTERNATIONAL AIRPORT , TX, United States (KELP) 31-49N 106-23W 1197M
May 14, 2021 - 01:51 AM EDT / 2021.05.14 0551 UTC
Wind: from the S (170 degrees) at 7 MPH (6 KT):0
Visibility: 10 mile(s):0
Sky conditions: clear
Temperature: 69.1 F (20.6 C)
Dew Point: 45.0 F (7.2 C)
Relative Humidity: 41%
Pressure (altimeter): 30.1 in. Hg (1019 hPa)
Pressure tendency: 0.01 inches (0.5 hPa) lower than three hours ago
ob: KELP 140551Z 17006KT 10SM CLR 21/07 A3010 RMK AO2 SLP128 T02060072 10311 20206 58005
cycle: 6

Station Type Date Time Source
KELP TAF 2021/05/14 06:42 UTC NOAA

TAF KELP 140540Z 1406/1506 15008KT P6SM FEW080 FEW200
FM150000 18010KT P6SM SCT100 PROB30 1500/1504 4SM TSRA BKN100CB
FM150400 11011KT P6SM BKN100

Example: see airport list